createdAt,value
2018-09-23T00:01:43.476Z,82.40
2018-09-23T00:04:13.099Z,83.10
2018-09-23T00:06:42.843Z,83.80
2018-09-23T00:09:12.342Z,85.30
2018-09-23T00:11:41.874Z,86.90
2018-09-23T00:14:11.533Z,87.70
2018-09-23T00:16:41.117Z,88.60
2018-09-23T00:19:10.771Z,89.00
2018-09-23T00:21:40.485Z,89.10
2018-09-23T00:24:09.968Z,89.90
2018-09-23T00:26:39.663Z,89.70
2018-09-23T00:29:09.159Z,89.70
2018-09-23T00:31:39.036Z,90.10
2018-09-23T00:34:08.724Z,90.00
2018-09-23T00:36:38.689Z,90.30
2018-09-23T00:39:08.535Z,90.40
2018-09-23T00:41:38.046Z,90.30
2018-09-23T00:44:07.903Z,90.50
2018-09-23T00:46:37.618Z,90.50
2018-09-23T00:49:07.539Z,90.80
2018-09-23T00:51:37.228Z,91.20
2018-09-23T00:54:07.014Z,90.90
2018-09-23T00:56:37.159Z,91.10
2018-09-23T00:59:06.807Z,91.10
2018-09-23T01:01:36.330Z,91.00
2018-09-23T01:04:06.220Z,91.00
2018-09-23T01:06:35.994Z,90.80
2018-09-23T01:09:07.394Z,90.90
2018-09-23T01:11:37.104Z,90.70
2018-09-23T01:14:06.764Z,90.80
2018-09-23T01:16:36.282Z,90.80
2018-09-23T01:19:05.774Z,90.70
2018-09-23T01:21:35.498Z,90.80
2018-09-23T01:24:05.064Z,90.70
2018-09-23T01:26:34.827Z,90.50
2018-09-23T01:29:05.267Z,90.40
2018-09-23T01:31:34.754Z,90.30
2018-09-23T01:34:04.470Z,90.30
2018-09-23T01:36:34.146Z,90.40
2018-09-23T01:39:04.727Z,90.30
2018-09-23T01:41:34.437Z,90.50
2018-09-23T01:44:04.310Z,90.30
2018-09-23T01:46:34.041Z,90.40
2018-09-23T01:49:03.872Z,90.80
2018-09-23T01:51:33.444Z,90.60
2018-09-23T01:54:03.042Z,90.90
2018-09-23T01:56:32.646Z,90.80
2018-09-23T01:59:02.419Z,91.40
2018-09-23T02:01:32.888Z,91.20
2018-09-23T02:04:02.504Z,90.60
2018-09-23T02:06:32.152Z,90.80
2018-09-23T02:09:01.943Z,90.80
2018-09-23T02:11:31.735Z,90.40
2018-09-23T02:14:01.381Z,90.40
2018-09-23T02:16:31.071Z,90.40
2018-09-23T02:19:00.722Z,90.60
2018-09-23T02:21:30.482Z,90.40
2018-09-23T02:24:00.111Z,90.60
2018-09-23T02:26:29.946Z,91.20
2018-09-23T02:28:59.615Z,91.40
2018-09-23T02:31:29.258Z,91.50
2018-09-23T02:33:58.903Z,91.80
2018-09-23T02:36:28.532Z,91.50
2018-09-23T02:38:58.014Z,91.40
2018-09-23T02:41:27.801Z,90.90
2018-09-23T02:43:57.706Z,91.50
2018-09-23T02:46:27.382Z,91.60
2018-09-23T02:48:57.127Z,91.20
2018-09-23T02:51:26.700Z,91.10
2018-09-23T02:53:56.452Z,91.10
2018-09-23T02:56:26.070Z,91.10
2018-09-23T02:58:55.607Z,91.00
2018-09-23T03:01:25.263Z,90.90
2018-09-23T03:03:54.921Z,90.90
2018-09-23T03:06:24.703Z,91.00
2018-09-23T03:08:54.424Z,91.00
2018-09-23T03:11:24.024Z,90.90
2018-09-23T03:13:53.471Z,91.00
2018-09-23T03:16:23.219Z,90.90
2018-09-23T03:18:52.675Z,91.00
2018-09-23T03:21:22.312Z,91.00
2018-09-23T03:23:51.989Z,91.10
2018-09-23T03:26:21.496Z,91.00
2018-09-23T03:28:51.302Z,91.00
2018-09-23T03:31:22.119Z,91.00
2018-09-23T03:33:52.140Z,90.90
2018-09-23T03:36:21.637Z,91.10
2018-09-23T03:38:51.470Z,90.80
2018-09-23T03:41:21.331Z,90.80
2018-09-23T03:43:50.755Z,90.90
2018-09-23T03:46:21.588Z,91.00
2018-09-23T03:48:51.237Z,91.00
2018-09-23T03:51:21.071Z,91.00
2018-09-23T03:53:50.778Z,91.20
2018-09-23T03:56:20.358Z,91.40
2018-09-23T03:58:50.015Z,91.80
2018-09-23T04:01:19.850Z,92.20
2018-09-23T04:03:49.513Z,92.20
2018-09-23T04:06:19.386Z,92.30
2018-09-23T04:08:48.990Z,92.30
2018-09-23T04:11:18.704Z,92.30
2018-09-23T04:13:48.261Z,92.30
2018-09-23T04:16:17.903Z,92.50
2018-09-23T04:18:47.614Z,92.50
2018-09-23T04:21:17.318Z,92.40
2018-09-23T04:23:47.192Z,92.40
2018-09-23T04:26:16.911Z,92.50
2018-09-23T04:28:46.523Z,92.50
2018-09-23T04:31:16.158Z,92.50
2018-09-23T04:33:45.839Z,92.40
2018-09-23T04:36:15.390Z,92.50
2018-09-23T04:38:44.909Z,92.40
2018-09-23T04:41:14.563Z,92.50
2018-09-23T04:43:44.144Z,92.50
2018-09-23T04:46:13.834Z,92.50
2018-09-23T04:48:43.378Z,92.60
2018-09-23T04:51:13.172Z,92.60
2018-09-23T04:53:42.735Z,92.70
2018-09-23T04:56:12.348Z,92.50
2018-09-23T04:58:42.058Z,92.60
2018-09-23T05:01:11.638Z,92.70
2018-09-23T05:03:41.079Z,92.70
2018-09-23T05:06:10.804Z,92.70
2018-09-23T05:08:40.507Z,92.70
2018-09-23T05:11:10.299Z,92.60
2018-09-23T05:13:40.018Z,92.60
2018-09-23T05:16:09.627Z,92.80
2018-09-23T05:18:39.305Z,92.80
2018-09-23T05:21:09.030Z,92.80
2018-09-23T05:23:38.581Z,92.70
2018-09-23T05:26:08.428Z,92.70
2018-09-23T05:28:38.183Z,92.90
2018-09-23T05:31:07.835Z,92.90
2018-09-23T05:33:37.634Z,92.90
2018-09-23T05:36:07.099Z,92.90
2018-09-23T05:38:37.076Z,92.90
2018-09-23T05:41:06.832Z,92.90
2018-09-23T05:43:36.444Z,92.90
2018-09-23T05:46:05.985Z,92.90
2018-09-23T05:48:35.698Z,93.00
2018-09-23T05:51:05.643Z,92.80
2018-09-23T05:53:35.452Z,93.00
2018-09-23T05:56:05.270Z,92.90
2018-09-23T05:58:35.035Z,92.90
2018-09-23T06:01:04.814Z,92.80
2018-09-23T06:03:34.432Z,92.80
2018-09-23T06:06:04.171Z,92.80
2018-09-23T06:08:33.682Z,92.90
2018-09-23T06:11:03.416Z,92.90
2018-09-23T06:13:33.077Z,92.90
2018-09-23T06:16:02.991Z,92.80
2018-09-23T06:18:32.690Z,92.80
2018-09-23T06:21:02.300Z,92.80
2018-09-23T06:23:31.954Z,92.80
2018-09-23T06:26:01.680Z,92.90
2018-09-23T06:28:31.095Z,92.70
2018-09-23T06:31:00.548Z,92.90
2018-09-23T06:33:30.051Z,92.90
2018-09-23T06:35:59.443Z,92.90
2018-09-23T06:38:28.932Z,93.00
2018-09-23T06:40:58.536Z,93.00
2018-09-23T06:43:28.506Z,93.00
2018-09-23T06:45:57.995Z,93.00
2018-09-23T06:48:27.676Z,93.10
2018-09-23T06:50:57.276Z,93.20
2018-09-23T06:53:27.022Z,93.20
2018-09-23T06:55:57.104Z,93.30
2018-09-23T06:58:26.640Z,93.20
2018-09-23T07:00:57.297Z,93.20
2018-09-23T07:03:26.940Z,93.10
2018-09-23T07:05:56.569Z,92.90
2018-09-23T07:08:26.341Z,92.90
2018-09-23T07:10:55.991Z,92.70
2018-09-23T07:13:25.562Z,92.70
2018-09-23T07:15:55.207Z,92.70
2018-09-23T07:18:24.990Z,92.70
2018-09-23T07:20:54.836Z,92.70
2018-09-23T07:23:24.590Z,92.60
2018-09-23T07:25:54.270Z,92.70
2018-09-23T07:28:23.860Z,92.60
2018-09-23T07:30:53.617Z,92.70
2018-09-23T07:33:23.326Z,92.70
2018-09-23T07:35:52.999Z,92.80
2018-09-23T07:38:22.764Z,92.70
2018-09-23T07:40:52.434Z,92.80
2018-09-23T07:43:21.995Z,92.70
2018-09-23T07:45:51.580Z,92.60
2018-09-23T07:48:21.111Z,92.60
2018-09-23T07:50:51.056Z,92.40
2018-09-23T07:53:20.531Z,92.80
2018-09-23T07:55:50.699Z,92.50
2018-09-23T07:58:20.572Z,92.50
2018-09-23T08:00:50.182Z,92.50
2018-09-23T08:03:19.892Z,92.50
2018-09-23T08:05:49.712Z,92.40
2018-09-23T08:08:19.484Z,92.50
2018-09-23T08:10:49.184Z,92.50
2018-09-23T08:13:18.851Z,92.60
2018-09-23T08:15:48.768Z,92.70
2018-09-23T08:18:18.558Z,92.60
2018-09-23T08:20:49.544Z,92.50
2018-09-23T08:23:19.162Z,92.50
2018-09-23T08:25:49.068Z,92.40
2018-09-23T08:28:18.870Z,92.50
2018-09-23T08:30:48.604Z,92.60
2018-09-23T08:33:18.290Z,92.70
2018-09-23T08:35:47.998Z,93.00
2018-09-23T08:38:17.759Z,92.40
2018-09-23T08:40:47.361Z,92.40
2018-09-23T08:43:17.166Z,92.40
2018-09-23T08:45:46.988Z,92.20
2018-09-23T08:48:16.794Z,92.00
2018-09-23T08:50:46.555Z,92.10
2018-09-23T08:53:16.347Z,92.20
2018-09-23T08:55:45.797Z,92.30
2018-09-23T08:58:15.441Z,92.20
2018-09-23T09:00:45.202Z,92.20
2018-09-23T09:03:14.961Z,92.30
2018-09-23T09:05:44.783Z,92.40
2018-09-23T09:08:14.163Z,92.60
2018-09-23T09:10:43.859Z,92.60
2018-09-23T09:13:13.567Z,92.60
2018-09-23T09:15:43.235Z,92.20
2018-09-23T09:18:12.876Z,92.00
2018-09-23T09:20:42.431Z,92.00
2018-09-23T09:23:12.097Z,92.10
2018-09-23T09:25:41.734Z,91.90
2018-09-23T09:28:11.275Z,91.90
2018-09-23T09:30:40.760Z,91.90
2018-09-23T09:33:10.344Z,92.20
2018-09-23T09:35:39.931Z,91.90
2018-09-23T09:38:09.754Z,91.90
2018-09-23T09:40:39.514Z,91.90
2018-09-23T09:43:09.094Z,91.50
2018-09-23T09:45:38.724Z,91.40
2018-09-23T09:48:08.286Z,91.30
2018-09-23T09:50:38.058Z,91.40
2018-09-23T09:53:07.835Z,91.40
2018-09-23T09:55:37.469Z,91.40
2018-09-23T09:58:07.119Z,91.40
2018-09-23T10:00:36.929Z,91.60
2018-09-23T10:03:07.149Z,91.60
2018-09-23T10:05:36.836Z,91.40
2018-09-23T10:08:06.715Z,91.20
2018-09-23T10:10:36.854Z,91.20
2018-09-23T10:13:06.674Z,91.30
2018-09-23T10:15:36.445Z,90.60
2018-09-23T10:18:08.265Z,90.90
2018-09-23T10:20:38.166Z,90.90
2018-09-23T10:23:07.708Z,90.70
2018-09-23T10:25:37.378Z,89.90
2018-09-23T10:28:06.970Z,90.40
2018-09-23T10:30:36.944Z,90.50
2018-09-23T10:33:06.686Z,90.10
2018-09-23T10:35:37.360Z,90.20
2018-09-23T10:38:07.490Z,90.30
2018-09-23T10:40:37.353Z,90.40
2018-09-23T10:43:07.453Z,90.60
2018-09-23T10:45:37.268Z,90.70
2018-09-23T10:48:06.699Z,90.70
2018-09-23T10:50:36.273Z,90.50
2018-09-23T10:53:06.041Z,90.70
2018-09-23T10:55:35.758Z,90.60
2018-09-23T10:58:05.210Z,90.50
2018-09-23T11:00:34.798Z,90.40
2018-09-23T11:03:04.593Z,90.30
2018-09-23T11:05:34.000Z,90.30
2018-09-23T11:08:03.571Z,90.10
2018-09-23T11:10:33.214Z,89.90
2018-09-23T11:13:02.924Z,89.90
2018-09-23T11:15:32.567Z,89.70
2018-09-23T11:18:02.069Z,90.10
2018-09-23T11:20:31.850Z,90.10
2018-09-23T11:23:01.552Z,90.10
2018-09-23T11:25:31.412Z,90.10
2018-09-23T11:28:00.954Z,89.20
2018-09-23T11:30:30.669Z,89.80
2018-09-23T11:33:00.257Z,86.50
2018-09-23T11:35:29.975Z,85.80
2018-09-23T11:37:59.703Z,86.70
2018-09-23T11:40:29.266Z,87.80
2018-09-23T11:42:59.080Z,88.90
2018-09-23T11:45:29.350Z,89.20
2018-09-23T11:47:58.897Z,88.20
2018-09-23T11:50:28.832Z,88.30
2018-09-23T11:52:58.586Z,87.60
2018-09-23T11:55:28.240Z,87.60
2018-09-23T11:58:02.770Z,86.90
2018-09-23T12:00:32.538Z,86.70
2018-09-23T12:03:01.968Z,86.70
2018-09-23T12:05:31.633Z,87.00
2018-09-23T12:08:01.289Z,86.60
2018-09-23T12:10:31.001Z,87.50
2018-09-23T12:13:00.687Z,87.90
2018-09-23T12:15:30.165Z,87.20
2018-09-23T12:17:59.782Z,85.20
2018-09-23T12:20:29.550Z,86.50
2018-09-23T12:22:59.032Z,86.00
2018-09-23T12:25:28.683Z,87.40
2018-09-23T12:27:58.307Z,86.60
2018-09-23T12:30:27.976Z,88.00
2018-09-23T12:32:57.715Z,87.10
2018-09-23T12:35:27.423Z,86.90
2018-09-23T12:37:56.806Z,86.30
2018-09-23T12:40:26.398Z,86.90
2018-09-23T12:42:56.099Z,85.90
2018-09-23T12:45:25.794Z,85.10
2018-09-23T12:47:55.291Z,83.90
2018-09-23T12:50:25.081Z,84.10
2018-09-23T12:52:54.763Z,83.80
2018-09-23T12:55:24.434Z,83.30
2018-09-23T12:57:54.060Z,83.80
2018-09-23T13:00:23.726Z,84.40
2018-09-23T13:02:53.259Z,83.70
2018-09-23T13:05:23.002Z,83.40
2018-09-23T13:07:52.481Z,83.10
2018-09-23T13:10:22.018Z,82.90
2018-09-23T13:12:51.656Z,83.20
2018-09-23T13:15:21.450Z,83.50
2018-09-23T13:17:51.365Z,83.10
2018-09-23T13:20:21.182Z,82.00
2018-09-23T13:22:50.844Z,83.30
2018-09-23T13:25:20.649Z,82.90
2018-09-23T13:27:50.353Z,82.70
2018-09-23T13:30:20.048Z,83.40
2018-09-23T13:32:49.571Z,83.90
2018-09-23T13:35:19.209Z,83.10
2018-09-23T13:37:49.071Z,82.90
2018-09-23T13:40:18.949Z,82.30
2018-09-23T13:42:48.633Z,83.00
2018-09-23T13:45:18.216Z,83.70
2018-09-23T13:47:47.911Z,83.40
2018-09-23T13:50:17.573Z,83.90
2018-09-23T13:52:47.182Z,83.70
2018-09-23T13:55:16.854Z,83.10
2018-09-23T13:57:46.609Z,82.40
2018-09-23T14:00:16.262Z,83.90
2018-09-23T14:02:46.755Z,83.60
2018-09-23T14:05:16.304Z,82.60
2018-09-23T14:07:45.906Z,81.60
2018-09-23T14:10:15.681Z,82.00
2018-09-23T14:12:45.302Z,82.00
2018-09-23T14:15:15.103Z,82.30
2018-09-23T14:17:44.806Z,81.80
2018-09-23T14:20:14.762Z,82.00
2018-09-23T14:22:44.471Z,82.10
2018-09-23T14:25:14.227Z,80.80
2018-09-23T14:27:43.642Z,81.30
2018-09-23T14:30:14.018Z,81.70
2018-09-23T14:32:43.688Z,81.90
2018-09-23T14:35:13.322Z,82.50
2018-09-23T14:37:42.922Z,81.40
2018-09-23T14:40:12.666Z,80.20
2018-09-23T14:42:42.318Z,81.30
2018-09-23T14:45:11.989Z,81.50
2018-09-23T14:47:41.716Z,81.00
2018-09-23T14:50:11.253Z,80.70
2018-09-23T14:52:41.149Z,81.10
2018-09-23T14:55:10.872Z,80.70
2018-09-23T14:57:40.365Z,80.50
2018-09-23T15:00:10.092Z,80.10
2018-09-23T15:02:39.454Z,80.50
2018-09-23T15:05:09.230Z,79.70
2018-09-23T15:07:38.670Z,79.30
2018-09-23T15:10:08.127Z,78.40
2018-09-23T15:12:37.654Z,79.20
2018-09-23T15:15:07.398Z,79.70
2018-09-23T15:17:37.045Z,79.60
2018-09-23T15:20:06.933Z,79.30
2018-09-23T15:22:36.552Z,79.50
2018-09-23T15:25:06.120Z,79.60
2018-09-23T15:27:35.728Z,78.30
2018-09-23T15:30:05.321Z,78.10
2018-09-23T15:32:35.095Z,79.00
2018-09-23T15:35:04.846Z,77.50
2018-09-23T15:37:34.446Z,76.60
2018-09-23T15:40:04.254Z,76.70
2018-09-23T15:42:33.891Z,76.80
2018-09-23T15:45:03.654Z,76.90
2018-09-23T15:47:33.108Z,76.80
2018-09-23T15:50:02.806Z,77.10
2018-09-23T15:52:32.870Z,77.00
2018-09-23T15:55:02.525Z,76.80
2018-09-23T15:57:32.255Z,76.20
2018-09-23T16:00:01.928Z,76.40
2018-09-23T16:02:32.335Z,76.40
2018-09-23T16:05:01.856Z,76.60
2018-09-23T16:07:31.403Z,76.00
2018-09-23T16:10:00.898Z,76.30
2018-09-23T16:12:30.381Z,76.40
2018-09-23T16:15:00.178Z,76.70
2018-09-23T16:17:29.814Z,76.80
2018-09-23T16:19:59.380Z,76.20
2018-09-23T16:22:28.927Z,75.80
2018-09-23T16:24:58.463Z,75.20
2018-09-23T16:27:28.501Z,76.10
2018-09-23T16:29:58.039Z,76.00
2018-09-23T16:32:27.731Z,75.80
2018-09-23T16:34:57.494Z,76.90
2018-09-23T16:37:26.967Z,77.20
2018-09-23T16:39:56.682Z,77.40
2018-09-23T16:42:26.270Z,77.10
2018-09-23T16:44:56.163Z,77.30
2018-09-23T16:47:26.033Z,77.70
2018-09-23T16:49:55.878Z,77.70
2018-09-23T16:52:25.600Z,77.90
2018-09-23T16:54:55.207Z,77.80
2018-09-23T16:57:24.813Z,78.10
2018-09-23T16:59:54.243Z,77.90
2018-09-23T17:02:23.847Z,77.70
2018-09-23T17:04:53.469Z,78.00
2018-09-23T17:07:23.175Z,78.10
2018-09-23T17:09:52.691Z,77.90
2018-09-23T17:12:22.175Z,78.20
2018-09-23T17:14:51.683Z,78.80
2018-09-23T17:17:21.345Z,79.00
2018-09-23T17:19:50.939Z,79.10
2018-09-23T17:22:20.300Z,79.00
2018-09-23T17:24:49.805Z,79.10
2018-09-23T17:27:19.505Z,79.10
2018-09-23T17:29:49.089Z,79.60
2018-09-23T17:32:18.746Z,79.10
2018-09-23T17:34:48.458Z,78.90
2018-09-23T17:37:18.031Z,79.20
2018-09-23T17:39:47.807Z,79.30
2018-09-23T17:42:17.613Z,79.60
2018-09-23T17:44:47.434Z,79.30
2018-09-23T17:47:16.972Z,78.80
2018-09-23T17:49:46.454Z,78.90
2018-09-23T17:52:16.031Z,78.70
2018-09-23T17:54:45.488Z,78.90
2018-09-23T17:57:15.141Z,78.90
2018-09-23T17:59:44.783Z,77.50
2018-09-23T18:02:14.684Z,74.40
2018-09-23T18:04:47.294Z,73.50
2018-09-23T18:07:17.054Z,80.90
2018-09-23T18:09:46.622Z,87.90
2018-09-23T18:12:16.243Z,91.60
2018-09-23T18:14:45.679Z,93.30
2018-09-23T18:17:15.632Z,94.80
2018-09-23T18:19:45.418Z,95.70
2018-09-23T18:22:15.262Z,96.30
2018-09-23T18:24:45.151Z,97.10
2018-09-23T18:27:14.719Z,95.50
2018-09-23T18:29:44.484Z,96.70
2018-09-23T18:32:14.230Z,94.80
2018-09-23T18:34:44.148Z,96.70
2018-09-23T18:37:14.109Z,97.00
2018-09-23T18:39:43.731Z,96.90
2018-09-23T18:42:13.374Z,97.10
2018-09-23T18:44:43.801Z,97.30
2018-09-23T18:47:14.571Z,97.60
2018-09-23T18:49:44.413Z,97.50
2018-09-23T18:52:14.196Z,97.60
2018-09-23T18:54:49.317Z,97.60
2018-09-23T18:57:19.140Z,97.70
2018-09-23T19:00:01.200Z,97.50
2018-09-23T19:02:31.098Z,97.60
2018-09-23T19:05:01.499Z,97.60
2018-09-23T19:07:31.349Z,97.40
2018-09-23T19:10:00.902Z,97.10
2018-09-23T19:12:30.784Z,97.10
2018-09-23T19:15:00.921Z,96.80
2018-09-23T19:17:30.953Z,97.00
2018-09-23T19:20:16.619Z,96.80
2018-09-23T19:22:51.928Z,97.20
2018-09-23T19:25:21.382Z,96.80
2018-09-23T19:27:51.415Z,96.70
2018-09-23T19:30:22.307Z,96.90
2018-09-23T19:32:52.199Z,97.00
2018-09-23T19:35:22.005Z,97.00
2018-09-23T19:37:51.732Z,97.20
2018-09-23T19:40:21.546Z,97.00
2018-09-23T19:42:51.289Z,94.10
2018-09-23T19:45:21.366Z,94.60
2018-09-23T19:47:50.862Z,95.40
2018-09-23T19:50:20.760Z,95.70
2018-09-23T19:52:50.351Z,95.00
2018-09-23T19:55:20.448Z,95.20
2018-09-23T19:57:50.566Z,94.20
2018-09-23T20:00:21.364Z,96.80
2018-09-23T20:02:51.323Z,96.20
2018-09-23T20:05:21.275Z,97.00
2018-09-23T20:07:51.407Z,96.50
2018-09-23T20:10:21.259Z,96.00
2018-09-23T20:12:51.140Z,95.70
2018-09-23T20:15:21.100Z,94.90
2018-09-23T20:17:50.720Z,94.70
2018-09-23T20:20:20.722Z,95.50
2018-09-23T20:22:50.432Z,94.60
2018-09-23T20:25:20.475Z,96.00
2018-09-23T20:27:50.615Z,94.30
2018-09-23T20:30:21.048Z,94.30
2018-09-23T20:32:51.075Z,94.70
2018-09-23T20:35:21.091Z,94.30
2018-09-23T20:37:50.913Z,94.10
2018-09-23T20:40:20.468Z,95.10
2018-09-23T20:42:51.270Z,94.70
2018-09-23T20:45:20.857Z,96.10
2018-09-23T20:47:50.386Z,94.60
2018-09-23T20:50:20.033Z,96.00
2018-09-23T20:52:49.893Z,95.50
2018-09-23T20:55:19.499Z,95.50
2018-09-23T20:57:49.191Z,94.80
2018-09-23T21:00:18.884Z,92.90
2018-09-23T21:02:48.380Z,95.00
2018-09-23T21:05:17.946Z,94.10
2018-09-23T21:07:47.429Z,94.60
2018-09-23T21:10:17.058Z,92.80
2018-09-23T21:12:46.541Z,93.70
2018-09-23T21:15:16.161Z,94.40
2018-09-23T21:17:45.875Z,94.10
2018-09-23T21:20:15.360Z,94.60
2018-09-23T21:22:45.101Z,95.50
2018-09-23T21:25:14.774Z,94.60
2018-09-23T21:27:44.520Z,94.00
2018-09-23T21:30:14.163Z,94.30
2018-09-23T21:32:43.947Z,93.30
2018-09-23T21:35:13.550Z,93.90
2018-09-23T21:37:43.198Z,93.50
2018-09-23T21:40:12.850Z,93.80
2018-09-23T21:42:42.386Z,93.70
2018-09-23T21:45:12.043Z,94.50
2018-09-23T21:47:41.809Z,93.40
2018-09-23T21:50:11.371Z,94.60
2018-09-23T21:52:40.991Z,92.90
2018-09-23T21:55:10.637Z,94.50
2018-09-23T21:57:40.343Z,95.80
2018-09-23T22:00:10.680Z,95.70
2018-09-23T22:02:40.098Z,95.40
2018-09-23T22:05:09.888Z,94.20
2018-09-23T22:07:39.451Z,95.40
2018-09-23T22:10:09.032Z,93.30
2018-09-23T22:12:38.741Z,94.80
2018-09-23T22:15:12.595Z,93.50
2018-09-23T22:17:42.313Z,92.60
2018-09-23T22:20:11.876Z,91.90
2018-09-23T22:22:41.578Z,91.90
2018-09-23T22:25:11.267Z,92.20
2018-09-23T22:27:41.118Z,91.10
2018-09-23T22:30:10.777Z,91.80
2018-09-23T22:32:40.437Z,91.50
2018-09-23T22:35:10.197Z,90.70
2018-09-23T22:37:39.889Z,91.10
2018-09-23T22:40:10.553Z,91.10
2018-09-23T22:42:41.650Z,91.90
2018-09-23T22:45:11.378Z,93.30
2018-09-23T22:47:41.085Z,91.60
2018-09-23T22:50:11.804Z,91.20
2018-09-23T22:52:41.380Z,91.60
2018-09-23T22:55:11.090Z,92.90
2018-09-23T22:57:40.714Z,92.00
2018-09-23T23:00:10.258Z,92.70
2018-09-23T23:02:39.978Z,90.80
2018-09-23T23:05:09.532Z,90.80
2018-09-23T23:07:39.123Z,90.50
2018-09-23T23:10:08.870Z,90.90
2018-09-23T23:12:38.639Z,91.00
2018-09-23T23:15:08.226Z,90.40
2018-09-23T23:17:37.911Z,90.70
2018-09-23T23:20:08.011Z,91.90
2018-09-23T23:22:37.731Z,91.80
2018-09-23T23:25:07.435Z,90.60
2018-09-23T23:27:37.114Z,90.40
2018-09-23T23:30:07.244Z,90.70
2018-09-23T23:32:36.982Z,90.90
2018-09-23T23:35:06.647Z,90.00
2018-09-23T23:37:36.134Z,90.50
2018-09-23T23:40:06.815Z,86.20
2018-09-23T23:42:36.460Z,87.60
2018-09-23T23:45:06.140Z,90.40
2018-09-23T23:47:35.905Z,85.00
2018-09-23T23:50:05.578Z,85.60
2018-09-23T23:52:35.288Z,89.10
2018-09-23T23:55:05.104Z,87.80
2018-09-23T23:57:34.737Z,88.00
